Time;durP1;ratioP1;P1;durP2;ratioP2;P2;SDS_P1;SDS_P2;PMS_P1;PMS_P2;Temp;Humidity;BMP_temperature;BMP_pressure;BME280_temperature;BME280_humidity;BME280_pressure;Samples;Min_cycle;Max_cycle;Signal;HPM_P1;HPM_P2
2022/11/11 00:04:26;;;;;;;207.67;101.87;;;5.10;99.90;;;;;;10487882;28;20048;-79
2022/11/11 00:09:28;;;;;;;208.37;100.67;;;5.00;99.90;;;;;;10486350;28;20634;-79
2022/11/11 00:14:28;;;;;;;213.73;98.00;;;4.90;99.90;;;;;;10487335;28;20041;-80
2022/11/11 00:25:06;;;;;;;194.07;90.77;;;4.90;99.90;;;;;;10472746;28;20734;-79
2022/11/11 00:30:07;;;;;;;274.93;113.97;;;4.80;99.90;;;;;;10474451;28;20567;-80
2022/11/11 00:40:27;;;;;;;242.60;117.27;;;4.80;99.90;;;;;;10485230;28;20052;-80
2022/11/11 00:45:28;;;;;;;258.40;127.20;;;4.80;99.90;;;;;;10484511;28;20021;-79
2022/11/11 00:55:48;;;;;;;199.07;105.90;;;5.20;99.90;;;;;;10485825;28;20107;-79
2022/11/11 01:00:52;;;;;;;184.10;95.60;;;5.30;99.90;;;;;;10484113;28;20407;-80
2022/11/11 01:05:53;;;;;;;147.67;80.17;;;5.50;99.90;;;;;;10485385;28;20063;-78
2022/11/11 01:10:53;;;;;;;150.47;81.00;;;5.80;99.90;;;;;;10483905;28;20048;-80
2022/11/11 01:16:00;;;;;;;151.33;76.60;;;6.00;99.90;;;;;;10484069;28;20103;-79
2022/11/11 01:21:05;;;;;;;142.90;71.70;;;6.20;99.90;;;;;;10484331;28;20053;-79
2022/11/11 01:26:18;;;;;;;114.80;58.07;;;6.30;99.90;;;;;;10484770;28;20059;-79
2022/11/11 01:31:21;;;;;;;123.83;63.43;;;6.40;99.90;;;;;;10482648;28;20060;-79
2022/11/11 01:36:25;;;;;;;162.83;81.97;;;6.50;99.90;;;;;;10484487;28;20059;-79
2022/11/11 01:41:32;;;;;;;138.40;74.13;;;6.60;99.90;;;;;;10483465;28;20539;-78
2022/11/11 01:46:41;;;;;;;116.47;60.27;;;6.60;99.90;;;;;;10482391;28;20055;-80
2022/11/11 01:52:08;;;;;;;106.43;53.90;;;6.70;99.90;;;;;;10484235;28;20503;-81
2022/11/11 01:57:15;;;;;;;;;;;6.80;99.90;;;;;;10448844;28;20049;-80
2022/11/11 02:02:21;;;;;;;108.07;51.67;;;6.80;99.90;;;;;;10482723;28;19912;-79
2022/11/11 02:07:22;;;;;;;;;;;6.80;99.90;;;;;;10464968;28;20020;-80
2022/11/11 02:17:42;;;;;;;102.73;51.60;;;6.80;99.90;;;;;;10481829;28;20052;-81
2022/11/11 02:22:52;;;;;;;90.93;48.53;;;6.90;99.90;;;;;;10482821;28;20060;-79
2022/11/11 02:27:58;;;;;;;89.60;46.60;;;6.90;99.90;;;;;;10491433;28;20028;-79
2022/11/11 02:32:59;;;;;;;91.18;47.70;;;7.00;99.90;;;;;;10489270;28;20029;-81
2022/11/11 02:38:07;;;;;;;100.47;50.17;;;7.00;99.90;;;;;;10472753;28;20037;-79
2022/11/11 02:43:07;;;;;;;115.93;55.97;;;7.00;99.90;;;;;;10490162;28;20055;-79
2022/11/11 02:48:08;;;;;;;93.23;51.83;;;7.10;99.90;;;;;;10489783;28;20028;-79
2022/11/11 02:53:08;;;;;;;98.97;54.50;;;7.10;99.90;;;;;;10490022;28;20109;-79
2022/11/11 02:58:09;;;;;;;103.93;52.87;;;7.20;99.90;;;;;;10490065;28;20551;-80
2022/11/11 03:03:10;;;;;;;89.37;47.30;;;7.20;99.90;;;;;;10488389;28;20032;-79
2022/11/11 03:08:10;;;;;;;87.90;46.47;;;7.10;99.90;;;;;;10489724;28;20028;-79
2022/11/11 03:13:11;;;;;;;92.20;47.70;;;7.20;99.90;;;;;;10489525;28;20121;-79
2022/11/11 03:18:11;;;;;;;90.30;47.70;;;7.20;99.90;;;;;;10488150;28;20048;-79
2022/11/11 03:23:14;;;;;;;86.93;45.97;;;7.20;99.90;;;;;;10489370;28;20033;-80
2022/11/11 03:28:20;;;;;;;82.20;44.47;;;7.20;99.90;;;;;;10470749;28;20491;-80
2022/11/11 03:33:20;;;;;;;84.25;46.22;;;7.20;99.90;;;;;;10478993;28;20032;-80
2022/11/11 03:38:24;;;;;;;83.20;43.50;;;7.10;99.90;;;;;;10488277;28;20047;-80
2022/11/11 03:43:27;;;;;;;92.13;47.37;;;6.90;99.90;;;;;;10488227;28;20036;-78
2022/11/11 03:48:33;;;;;;;101.07;50.73;;;6.60;99.90;;;;;;10487657;28;20056;-81
2022/11/11 03:53:33;;;;;;;96.18;47.70;;;6.30;99.90;;;;;;10487456;28;20372;-79
2022/11/11 03:58:34;;;;;;;85.57;44.57;;;6.00;99.90;;;;;;10487541;28;20052;-79
2022/11/11 04:30:11;;;;;;;128.13;58.70;;;5.20;99.90;;;;;;10474077;28;20048;-79
2022/11/11 04:35:13;;;;;;;127.80;57.33;;;5.10;99.90;;;;;;10485755;28;20674;-79
2022/11/11 04:45:35;;;;;;;115.63;54.90;;;5.00;99.90;;;;;;10483247;28;20493;-80
2022/11/11 04:50:37;;;;;;;111.77;51.17;;;5.10;99.90;;;;;;10485597;28;20079;-79
2022/11/11 05:00:58;;;;;;;114.80;51.57;;;5.20;99.90;;;;;;10483896;28;20048;-79
2022/11/11 05:11:39;;;;;;;132.43;53.97;;;5.20;99.90;;;;;;10407216;28;20030;-80
2022/11/11 05:22:16;;;;;;;134.03;56.43;;;5.20;99.90;;;;;;10484490;28;20045;-79
2022/11/11 05:27:16;;;;;;;125.57;56.33;;;5.30;99.90;;;;;;10480961;28;20062;-80
2022/11/11 05:32:19;;;;;;;104.87;49.43;;;5.30;99.90;;;;;;10482286;28;20482;-80
2022/11/11 05:37:19;;;;;;;106.33;49.37;;;5.20;99.90;;;;;;10482836;28;20044;-79
2022/11/11 05:42:20;;;;;;;110.93;51.57;;;5.20;99.90;;;;;;10483819;28;20029;-81
2022/11/11 05:47:21;;;;;;;180.47;86.17;;;5.30;99.90;;;;;;10482733;28;20058;-79
2022/11/11 05:52:22;;;;;;;191.03;81.50;;;5.40;99.90;;;;;;10483478;28;20036;-80
2022/11/11 05:57:22;;;;;;;151.83;69.37;;;5.40;99.90;;;;;;10483027;28;20472;-80
2022/11/11 06:02:22;;;;;;;143.13;69.93;;;5.20;99.90;;;;;;10481585;28;20043;-80
2022/11/11 06:07:23;;;;;;;123.87;59.77;;;5.20;99.90;;;;;;10482632;28;20659;-79
2022/11/11 06:12:23;;;;;;;186.37;84.13;;;5.30;99.90;;;;;;10482400;28;20028;-79
2022/11/11 06:17:24;;;;;;;177.07;78.73;;;5.40;99.90;;;;;;10480893;28;20464;-79
2022/11/11 06:22:55;;;;;;;152.43;73.13;;;5.50;99.90;;;;;;10482428;28;20053;-81
2022/11/11 06:27:45;;;;;;;173.57;73.53;;;5.70;99.90;;;;;;10480264;28;20066;-79
2022/11/11 06:32:46;;;;;;;149.13;72.20;;;5.70;99.90;;;;;;10478634;28;20066;-79
2022/11/11 06:37:46;;;;;;;170.63;74.23;;;5.60;99.90;;;;;;10479840;28;20562;-81
2022/11/11 06:42:47;;;;;;;150.83;71.37;;;5.60;99.90;;;;;;10482021;28;20116;-79
2022/11/11 06:47:47;;;;;;;147.00;64.37;;;5.60;99.90;;;;;;10479983;28;20028;-79
2022/11/11 06:52:48;;;;;;;152.70;71.63;;;5.60;99.90;;;;;;10480995;28;20060;-79
2022/11/11 06:57:49;;;;;;;144.37;64.00;;;5.70;99.90;;;;;;10480194;28;20526;-79
2022/11/11 07:02:54;;;;;;;127.53;60.43;;;5.80;99.90;;;;;;10462484;28;20029;-79
2022/11/11 07:07:55;;;;;;;145.98;65.22;;;5.90;99.90;;;;;;10480588;28;20051;-80
2022/11/11 07:12:56;;;;;;;125.80;59.93;;;6.10;99.90;;;;;;10488103;28;20629;-80
2022/11/11 07:17:56;;;;;;;109.93;57.07;;;6.40;99.90;;;;;;10488708;28;20562;-81
2022/11/11 07:22:57;;;;;;;142.10;64.27;;;6.70;99.90;;;;;;10469503;28;20503;-80
2022/11/11 07:27:58;;;;;;;116.73;60.33;;;6.90;99.90;;;;;;10464607;28;20040;-80
2022/11/11 07:32:59;;;;;;;109.43;56.43;;;7.10;99.90;;;;;;10489055;28;20036;-79
2022/11/11 07:37:59;;;;;;;103.20;52.83;;;7.40;99.90;;;;;;10474148;28;20041;-80
2022/11/11 07:43:00;;;;;;;108.50;56.83;;;7.60;99.90;;;;;;10485130;28;20016;-80
2022/11/11 07:48:00;;;;;;;92.27;48.63;;;8.00;99.90;;;;;;10486395;28;20029;-81
2022/11/11 07:53:01;;;;;;;71.47;37.33;;;8.40;99.90;;;;;;10487209;28;20109;-84
2022/11/11 07:58:01;;;;;;;83.50;42.87;;;8.70;99.90;;;;;;10487074;28;20127;-79
2022/11/11 08:03:02;;;;;;;77.07;39.57;;;9.00;99.90;;;;;;10484786;28;20051;-79
2022/11/11 08:08:07;;;;;;;67.90;37.33;;;9.30;99.90;;;;;;10485479;28;20055;-80
2022/11/11 08:18:29;;;;;;;62.80;30.83;;;9.70;99.90;;;;;;10475846;28;20131;-82
2022/11/11 08:23:31;;;;;;;53.15;28.95;;;9.80;99.90;;;;;;10478491;28;20036;-80
2022/11/11 08:28:36;;;;;;;37.60;21.95;;;9.90;99.90;;;;;;10485206;28;20492;-80
2022/11/11 08:33:36;;;;;;;38.58;21.75;;;10.10;99.90;;;;;;10485348;28;20036;-80
2022/11/11 08:38:38;;;;;;;44.53;24.05;;;10.30;99.90;;;;;;10484819;28;20033;-80
2022/11/11 08:43:38;;;;;;;55.07;29.20;;;10.50;99.90;;;;;;10485387;28;20392;-79
2022/11/11 08:48:39;;;;;;;57.78;29.77;;;10.60;99.90;;;;;;10484639;28;20043;-79
2022/11/11 08:53:40;;;;;;;48.53;27.95;;;10.80;99.90;;;;;;10485892;28;20036;-79
2022/11/11 08:58:40;;;;;;;45.78;27.50;;;11.20;99.90;;;;;;10483408;28;20051;-78
2022/11/11 09:03:42;;;;;;;39.78;20.48;;;11.60;99.90;;;;;;10484236;28;20064;-82
2022/11/11 09:08:43;;;;;;;39.70;21.50;;;11.90;99.90;;;;;;10483819;28;20021;-79
2022/11/11 09:13:46;;;;;;;42.45;25.25;;;11.80;99.90;;;;;;10482938;28;20028;-78
2022/11/11 09:18:46;;;;;;;38.38;22.67;;;11.80;99.90;;;;;;10483531;28;20078;-80
2022/11/11 09:23:47;;;;;;;41.33;23.00;;;11.70;99.90;;;;;;10484200;28;20043;-79
2022/11/11 09:28:47;;;;;;;42.30;25.30;;;11.60;99.90;;;;;;10483453;28;20020;-81
2022/11/11 09:33:49;;;;;;;42.80;24.83;;;11.50;99.90;;;;;;10483469;28;20028;-79
2022/11/11 09:38:49;;;;;;;42.20;24.27;;;11.60;99.90;;;;;;10483828;28;20040;-80
2022/11/11 09:43:53;;;;;;;60.25;31.67;;;11.60;99.90;;;;;;10483065;28;20746;-78
2022/11/11 09:49:06;;;;;;;56.45;32.50;;;11.60;99.90;;;;;;10482651;28;20028;-79
2022/11/11 09:54:14;;;;;;;45.67;26.42;;;11.80;99.90;;;;;;10483173;28;20122;-79
2022/11/11 09:59:24;;;;;;;57.90;30.77;;;11.90;99.90;;;;;;10464386;28;20682;-79
2022/11/11 10:04:45;;;;;;;41.03;23.63;;;12.00;99.90;;;;;;10477466;28;20389;-80
2022/11/11 10:10:03;;;;;;;50.10;27.73;;;12.10;99.90;;;;;;10471417;28;20580;-79
2022/11/11 10:15:10;;;;;;;52.35;28.25;;;12.20;99.90;;;;;;10481873;28;20028;-79
2022/11/11 10:20:24;;;;;;;36.20;22.02;;;12.40;99.90;;;;;;10481798;28;20048;-81
2022/11/11 10:25:25;;;;;;;61.28;29.58;;;12.70;99.90;;;;;;10482994;28;20037;-80
2022/11/11 10:30:31;;;;;;;46.40;25.23;;;13.00;99.90;;;;;;10481852;28;20119;-78
2022/11/11 10:35:32;;;;;;;;;;;13.30;99.90;;;;;;10482659;28;20037;-79
2022/11/11 10:40:50;;;;;;;50.60;25.15;;;13.60;99.90;;;;;;10478938;28;20309;-79
2022/11/11 10:46:30;;;;;;;31.60;18.33;;;13.70;99.90;;;;;;10484623;28;20507;-79
2022/11/11 10:51:36;;;;;;;46.60;26.08;;;13.80;99.90;;;;;;10489453;28;20372;-79
2022/11/11 10:56:43;;;;;;;36.60;19.23;;;13.60;99.90;;;;;;10488640;28;20029;-80
2022/11/11 11:01:53;;;;;;;45.90;22.80;;;13.50;99.90;;;;;;10489274;28;20037;-79
2022/11/11 11:06:56;;;;;;;49.63;24.10;;;13.40;99.90;;;;;;10473241;28;20036;-79
2022/11/11 11:12:09;;;;;;;43.40;20.75;;;13.40;99.90;;;;;;10489457;28;20031;-80
2022/11/11 11:17:18;;;;;;;27.63;13.70;;;13.20;99.90;;;;;;10489030;28;20043;-79
2022/11/11 11:22:19;;;;;;;25.23;13.73;;;13.20;99.90;;;;;;10488019;28;20048;-80
2022/11/11 11:27:25;;;;;;;48.60;24.27;;;13.10;99.90;;;;;;10488159;28;20029;-80
2022/11/11 11:32:27;;;;;;;43.85;23.75;;;13.10;99.90;;;;;;10489669;28;20043;-79
2022/11/11 11:37:28;;;;;;;34.30;18.63;;;13.30;99.90;;;;;;10487714;28;20032;-80
2022/11/11 11:42:34;;;;;;;30.90;17.08;;;13.30;99.90;;;;;;10489432;28;20078;-79
2022/11/11 11:47:35;;;;;;;34.00;18.13;;;13.30;99.90;;;;;;10487138;28;20134;-82
2022/11/11 11:52:47;;;;;;;30.27;16.10;;;13.20;99.90;;;;;;10460817;22;20171;-80
2022/11/11 11:57:51;;;;;;;41.83;20.50;;;13.00;99.90;;;;;;10425236;28;20137;-78
2022/11/11 12:03:23;;;;;;;38.03;19.67;;;12.90;99.90;;;;;;10438356;28;20041;-80
2022/11/11 12:08:29;;;;;;;43.30;21.05;;;12.80;99.90;;;;;;10445656;28;20025;-80
2022/11/11 12:13:53;;;;;;;37.83;21.02;;;12.70;99.90;;;;;;10426174;28;20035;-78
2022/11/11 12:19:24;;;;;;;41.58;20.45;;;12.60;99.90;;;;;;10444179;28;20650;-79
2022/11/11 12:24:27;;;;;;;41.58;20.23;;;12.50;99.90;;;;;;10425352;28;20079;-79
2022/11/11 12:30:02;;;;;;;37.03;19.13;;;12.40;99.90;;;;;;10444700;28;20079;-80
2022/11/11 12:35:32;;;;;;;39.65;20.77;;;12.40;99.90;;;;;;10440081;28;20043;-80
2022/11/11 12:40:42;;;;;;;34.50;20.05;;;12.30;99.90;;;;;;10442857;28;20040;-80
2022/11/11 12:45:50;;;;;;;32.35;17.27;;;12.20;99.90;;;;;;10444082;28;20071;-80
2022/11/11 12:51:15;;;;;;;32.40;18.52;;;12.20;99.90;;;;;;10473311;23;20125;-79
2022/11/11 12:56:49;;;;;;;30.20;16.60;;;12.10;99.90;;;;;;10477640;28;20028;-79
2022/11/11 13:02:19;;;;;;;30.27;16.13;;;12.10;99.90;;;;;;10469085;28;20044;-80
2022/11/11 13:07:38;;;;;;;29.38;14.55;;;12.10;99.90;;;;;;10481271;28;20023;-78
2022/11/11 13:12:59;;;;;;;25.55;13.43;;;12.10;99.90;;;;;;10482430;28;20050;-80
2022/11/11 13:18:01;;;;;;;37.55;22.55;;;12.10;99.90;;;;;;10479128;28;20082;-78
2022/11/11 13:23:01;;;;;;;44.38;21.92;;;12.00;99.90;;;;;;10473249;28;20036;-78
2022/11/11 13:28:27;;;;;;;31.85;17.40;;;11.90;99.90;;;;;;10475052;28;20033;-80
2022/11/11 13:33:39;;;;;;;43.10;24.38;;;11.90;99.90;;;;;;10478150;28;20036;-79
2022/11/11 13:38:50;;;;;;;43.22;25.15;;;11.80;99.90;;;;;;10477512;28;20040;-78
2022/11/11 13:43:54;;;;;;;34.97;20.55;;;11.80;99.90;;;;;;10478882;28;20039;-78
2022/11/11 13:48:55;;;;;;;40.50;22.83;;;11.80;99.90;;;;;;10477981;28;20052;-79
2022/11/11 13:53:58;;;;;;;42.17;21.88;;;11.80;99.90;;;;;;10480584;28;20890;-79
2022/11/11 13:59:00;;;;;;;47.17;23.98;;;11.80;99.90;;;;;;10477562;28;20530;-79
2022/11/11 14:04:06;;;;;;;41.47;21.38;;;11.70;99.90;;;;;;10479055;28;20143;-79
2022/11/11 14:09:07;;;;;;;38.85;20.30;;;11.70;99.90;;;;;;10479924;28;20115;-80
2022/11/11 14:14:37;;;;;;;39.60;20.48;;;11.60;99.90;;;;;;10476315;28;20385;-80
2022/11/11 14:19:37;;;;;;;59.75;28.52;;;11.50;99.90;;;;;;10480273;28;20089;-79
2022/11/11 14:24:44;;;;;;;39.45;22.48;;;11.40;99.90;;;;;;10485618;28;20040;-81
2022/11/11 14:29:57;;;;;;;49.38;24.60;;;11.30;99.90;;;;;;10489669;28;20060;-79
2022/11/11 14:35:24;;;;;;;45.55;23.17;;;11.20;99.90;;;;;;10469768;28;20056;-79
2022/11/11 14:40:28;;;;;;;;;;;11.10;99.90;;;;;;10488786;28;20040;-79
2022/11/11 14:45:28;;;;;;;46.15;23.50;;;11.00;99.90;;;;;;10476166;28;19908;-79
2022/11/11 14:50:32;;;;;;;48.85;26.30;;;10.90;99.90;;;;;;10487429;28;20071;-79
2022/11/11 14:55:39;;;;;;;62.92;34.08;;;10.80;99.90;;;;;;10481660;28;20024;-79
2022/11/11 15:00:50;;;;;;;56.40;30.67;;;10.70;99.90;;;;;;10485231;28;20043;-79
2022/11/11 15:06:01;;;;;;;70.10;35.83;;;10.60;99.90;;;;;;10479030;28;20416;-81
2022/11/11 15:11:23;;;;;;;69.00;34.87;;;10.50;99.90;;;;;;10484915;28;20028;-79
2022/11/11 15:16:48;;;;;;;55.58;29.85;;;10.40;99.90;;;;;;10485602;28;20060;-79
2022/11/11 15:21:56;;;;;;;67.23;35.30;;;10.30;99.90;;;;;;10488812;28;20044;-78
2022/11/11 15:27:16;;;;;;;327.73;137.38;;;10.10;99.90;;;;;;10485708;28;20036;-79
2022/11/11 15:32:59;;;;;;;110.78;48.83;;;10.00;99.90;;;;;;10487372;28;20031;-79
2022/11/11 15:38:03;;;;;;;368.67;146.60;;;9.90;99.90;;;;;;10459471;28;20083;-78
2022/11/11 15:43:04;;;;;;;127.20;54.07;;;9.80;99.90;;;;;;10483417;28;20029;-79
2022/11/11 15:48:17;;;;;;;88.90;39.67;;;9.70;99.90;;;;;;10473520;28;20020;-80
2022/11/11 15:53:27;;;;;;;63.70;31.57;;;9.70;99.90;;;;;;10446428;28;1056629;-79
2022/11/11 15:58:30;;;;;;;63.57;32.60;;;9.60;99.90;;;;;;10486120;28;20037;-79
2022/11/11 16:03:40;;;;;;;62.23;31.30;;;9.60;99.90;;;;;;10468957;28;20059;-79
2022/11/11 16:08:43;;;;;;;85.20;36.77;;;9.60;99.90;;;;;;10483805;28;21013;-79
2022/11/11 16:13:51;;;;;;;71.53;33.60;;;9.50;99.90;;;;;;10484090;28;20069;-78
2022/11/11 16:18:57;;;;;;;54.83;30.57;;;9.50;99.90;;;;;;10485050;28;20701;-79
2022/11/11 16:24:00;;;;;;;82.80;36.87;;;9.50;99.90;;;;;;10477510;28;20063;-81
2022/11/11 16:29:00;;;;;;;82.17;37.17;;;9.50;99.90;;;;;;10480789;28;20029;-79
2022/11/11 16:34:29;;;;;;;69.17;33.50;;;9.50;99.90;;;;;;10483019;28;20837;-79
2022/11/11 16:39:29;;;;;;;66.50;34.33;;;9.50;99.90;;;;;;10484323;28;20385;-79
2022/11/11 16:44:42;;;;;;;81.23;36.63;;;9.50;99.90;;;;;;10482173;28;20024;-79
2022/11/11 16:49:43;;;;;;;93.63;44.93;;;9.40;99.90;;;;;;10481267;28;20056;-78
2022/11/11 16:54:52;;;;;;;103.27;44.13;;;9.40;99.90;;;;;;10483088;28;20727;-79
2022/11/11 17:00:04;;;;;;;70.00;35.03;;;9.30;99.90;;;;;;10481747;28;20036;-78
2022/11/11 17:05:05;;;;;;;76.20;36.93;;;9.20;99.90;;;;;;10464510;28;20048;-79
2022/11/11 17:10:12;;;;;;;81.37;38.37;;;9.20;99.90;;;;;;10481971;28;20476;-80
2022/11/11 17:15:14;;;;;;;91.67;47.97;;;9.10;99.90;;;;;;10474644;28;20066;-80
2022/11/11 17:20:20;;;;;;;132.73;61.43;;;9.10;99.90;;;;;;10483910;28;20095;-79
2022/11/11 17:25:20;;;;;;;90.38;47.55;;;9.00;99.90;;;;;;10481220;28;20036;-79
2022/11/11 17:30:21;;;;;;;172.47;99.53;;;8.90;99.90;;;;;;10480602;28;20040;-79
2022/11/11 17:35:21;;;;;;;259.10;149.50;;;8.90;99.90;;;;;;10481759;28;20036;-80
2022/11/11 17:40:22;;;;;;;151.90;87.00;;;8.80;99.90;;;;;;10481674;28;20436;-79
2022/11/11 17:45:22;;;;;;;133.20;76.37;;;8.70;99.90;;;;;;10482412;28;20029;-79
2022/11/11 17:50:23;;;;;;;113.50;61.73;;;8.60;99.90;;;;;;10485384;28;20059;-78
2022/11/11 17:55:24;;;;;;;104.33;53.57;;;8.60;99.90;;;;;;10481278;28;20065;-81
2022/11/11 18:00:25;;;;;;;106.80;56.00;;;8.50;99.90;;;;;;10480597;28;20117;-78
2022/11/11 18:05:25;;;;;;;113.47;63.87;;;8.40;99.90;;;;;;10480827;28;20058;-79
2022/11/11 18:10:26;;;;;;;126.13;69.43;;;8.40;99.90;;;;;;10482040;28;20466;-80
2022/11/11 18:15:27;;;;;;;118.33;65.07;;;8.40;99.90;;;;;;10481602;28;20059;-79
2022/11/11 18:20:27;;;;;;;147.37;90.37;;;8.30;99.90;;;;;;10485125;28;20036;-79
2022/11/11 18:25:28;;;;;;;128.07;75.00;;;8.20;99.90;;;;;;10483885;28;20134;-81
2022/11/11 18:30:29;;;;;;;120.37;70.67;;;8.10;99.90;;;;;;10481349;28;20028;-78
2022/11/11 18:35:29;;;;;;;113.10;68.00;;;8.10;99.90;;;;;;10480234;28;20032;-80
2022/11/11 18:40:30;;;;;;;114.37;67.00;;;8.00;99.90;;;;;;10478905;28;20119;-78
2022/11/11 18:45:34;;;;;;;128.40;72.60;;;8.00;99.90;;;;;;10479538;28;20028;-79
2022/11/11 18:50:34;;;;;;;123.97;70.90;;;8.00;99.90;;;;;;10471943;28;20127;-78
2022/11/11 18:55:35;;;;;;;120.40;67.93;;;8.00;99.90;;;;;;10485362;28;20028;-83
2022/11/11 19:00:35;;;;;;;129.27;73.80;;;8.00;99.90;;;;;;10481129;28;20049;-80
2022/11/11 19:05:36;;;;;;;127.73;70.37;;;8.00;99.90;;;;;;10483343;28;20059;-78
2022/11/11 19:10:36;;;;;;;208.07;118.50;;;8.00;99.90;;;;;;10488767;28;20029;-78
2022/11/11 19:15:37;;;;;;;374.40;237.30;;;8.00;99.90;;;;;;10486439;28;20032;-78
2022/11/11 19:20:37;;;;;;;302.07;149.53;;;8.00;99.90;;;;;;10481433;28;20045;-78
2022/11/11 19:25:38;;;;;;;297.27;135.83;;;8.00;99.90;;;;;;10487739;28;20111;-80
2022/11/11 19:30:39;;;;;;;275.50;130.07;;;8.00;99.90;;;;;;10482031;28;20107;-79
2022/11/11 19:35:39;;;;;;;271.30;131.40;;;7.90;99.90;;;;;;10480417;28;20041;-79
2022/11/11 19:40:40;;;;;;;247.97;128.77;;;7.90;99.90;;;;;;10478060;28;20047;-79
2022/11/11 19:45:40;;;;;;;216.83;120.10;;;7.80;99.90;;;;;;10487667;28;20055;-79
2022/11/11 19:50:41;;;;;;;223.20;117.13;;;7.70;99.90;;;;;;10487229;28;20455;-81
2022/11/11 19:55:42;;;;;;;201.73;102.93;;;7.70;99.90;;;;;;10485537;28;20124;-80
2022/11/11 20:00:43;;;;;;;197.83;118.53;;;7.60;99.90;;;;;;10486112;28;20139;-80
2022/11/11 20:05:44;;;;;;;208.97;131.47;;;7.70;99.90;;;;;;10482910;28;20527;-79
2022/11/11 20:10:45;;;;;;;120.93;74.30;;;7.70;99.90;;;;;;10485177;28;20415;-78
2022/11/11 20:15:46;;;;;;;107.40;66.53;;;7.70;99.90;;;;;;10485348;28;20040;-80
2022/11/11 20:20:46;;;;;;;116.53;69.07;;;7.70;99.90;;;;;;10474662;28;20044;-79
2022/11/11 20:25:47;;;;;;;124.47;76.33;;;7.70;99.90;;;;;;10484280;28;20036;-81
2022/11/11 20:30:47;;;;;;;142.37;76.40;;;7.70;99.90;;;;;;10485656;28;20828;-78
2022/11/11 20:35:48;;;;;;;110.20;60.20;;;7.70;99.90;;;;;;10485546;28;20033;-80
2022/11/11 20:41:00;;;;;;;106.00;56.53;;;7.70;99.90;;;;;;10470249;28;20497;-80
2022/11/11 20:46:09;;;;;;;112.23;65.03;;;7.60;99.90;;;;;;10495388;22;20064;-79
2022/11/11 20:51:14;;;;;;;117.13;64.07;;;7.60;99.90;;;;;;10441710;28;20025;-80
2022/11/11 20:56:16;;;;;;;112.25;63.50;;;7.60;99.90;;;;;;10441713;28;20079;-81
2022/11/11 21:01:28;;;;;;;124.47;71.90;;;7.60;99.90;;;;;;10442087;28;20542;-82
2022/11/11 21:06:29;;;;;;;116.03;67.90;;;7.50;99.90;;;;;;10442329;28;20047;-78
2022/11/11 21:11:29;;;;;;;128.63;74.47;;;7.50;99.90;;;;;;10443541;28;20029;-79
2022/11/11 21:16:31;;;;;;;131.40;72.43;;;7.40;99.90;;;;;;10442422;28;20029;-79
2022/11/11 21:21:32;;;;;;;130.23;75.17;;;7.40;99.90;;;;;;10442129;28;20079;-80
2022/11/11 21:26:34;;;;;;;128.33;71.10;;;7.20;99.90;;;;;;10443238;28;20496;-77
2022/11/11 21:31:41;;;;;;;184.17;92.27;;;7.10;99.90;;;;;;10441579;28;20036;-78
2022/11/11 21:36:42;;;;;;;204.50;105.40;;;7.10;99.90;;;;;;10442228;28;20033;-78
2022/11/11 21:41:42;;;;;;;157.40;83.47;;;7.10;99.90;;;;;;10432790;28;20037;-79
2022/11/11 21:46:43;;;;;;;143.47;83.03;;;6.90;99.90;;;;;;10440003;28;20060;-78
2022/11/11 21:51:43;;;;;;;122.57;73.17;;;6.80;99.90;;;;;;10440382;28;20397;-80
2022/11/11 21:56:44;;;;;;;168.50;94.70;;;6.70;99.90;;;;;;10441391;28;20045;-78
2022/11/11 22:01:45;;;;;;;142.17;80.40;;;6.50;99.90;;;;;;10442172;28;20048;-78
2022/11/11 22:06:45;;;;;;;162.13;86.20;;;6.40;99.90;;;;;;10441699;28;20040;-79
2022/11/11 22:11:46;;;;;;;128.10;68.80;;;6.30;99.90;;;;;;10441567;28;20039;-80
2022/11/11 22:16:46;;;;;;;177.03;89.33;;;6.20;99.90;;;;;;10439750;28;20764;-80
2022/11/11 22:21:48;;;;;;;201.83;110.00;;;6.00;99.90;;;;;;10440365;28;20484;-80
2022/11/11 22:26:49;;;;;;;238.03;126.27;;;5.80;99.90;;;;;;10439797;28;20123;-78
2022/11/11 22:31:49;;;;;;;332.97;169.50;;;5.70;99.90;;;;;;10440179;28;20059;-80
2022/11/11 22:36:50;;;;;;;426.80;214.77;;;5.60;99.90;;;;;;10438758;28;20044;-78
2022/11/11 22:41:51;;;;;;;362.83;181.43;;;5.60;99.90;;;;;;10444400;28;20411;-78
2022/11/11 22:46:51;;;;;;;370.20;176.33;;;5.50;99.90;;;;;;10447369;28;20057;-79
2022/11/11 22:51:52;;;;;;;268.80;131.70;;;5.50;99.90;;;;;;10447967;28;20033;-78
2022/11/11 22:56:52;;;;;;;276.67;130.93;;;5.50;99.90;;;;;;10447995;28;20033;-78
2022/11/11 23:01:53;;;;;;;221.43;111.73;;;5.50;99.90;;;;;;10448397;28;20045;-79
2022/11/11 23:06:53;;;;;;;181.63;96.60;;;5.50;99.90;;;;;;10447446;28;20543;-78
2022/11/11 23:11:54;;;;;;;174.43;92.33;;;5.50;99.90;;;;;;10447834;28;20649;-79
2022/11/11 23:16:54;;;;;;;168.40;87.87;;;5.70;99.90;;;;;;10446820;28;20025;-78
2022/11/11 23:21:55;;;;;;;177.37;80.20;;;5.80;99.90;;;;;;10446447;28;20056;-79
2022/11/11 23:26:55;;;;;;;160.60;82.77;;;5.80;99.90;;;;;;10441927;28;20470;-79
2022/11/11 23:31:56;;;;;;;175.07;86.20;;;5.70;99.90;;;;;;10409116;28;20107;-79
2022/11/11 23:36:57;;;;;;;153.33;77.00;;;5.70;99.90;;;;;;10409694;28;20414;-79
2022/11/11 23:41:57;;;;;;;160.30;76.90;;;5.80;99.90;;;;;;10413434;28;20068;-79
2022/11/11 23:46:58;;;;;;;158.20;78.47;;;5.90;99.90;;;;;;10461156;22;20588;-79
2022/11/11 23:51:58;;;;;;;159.30;84.20;;;5.90;99.90;;;;;;10448088;28;20021;-79
2022/11/11 23:56:59;;;;;;;160.63;83.03;;;6.10;99.90;;;;;;10454678;28;20056;-79
